createdAt,value
2022-10-31T00:01:12.878Z,10.70
2022-10-31T00:03:39.573Z,10.63
2022-10-31T00:06:06.326Z,10.64
2022-10-31T00:08:33.053Z,10.68
2022-10-31T00:10:59.732Z,10.71
2022-10-31T00:13:26.547Z,10.64
2022-10-31T00:15:53.428Z,10.72
2022-10-31T00:18:20.072Z,10.77
2022-10-31T00:20:46.808Z,10.86
2022-10-31T00:23:13.617Z,10.81
2022-10-31T00:25:41.255Z,10.78
2022-10-31T00:28:09.995Z,10.69
2022-10-31T00:30:36.886Z,10.72
2022-10-31T00:33:05.177Z,10.66
2022-10-31T00:35:32.104Z,10.59
2022-10-31T00:37:58.806Z,10.57
2022-10-31T00:40:25.530Z,10.63
2022-10-31T00:42:52.249Z,10.54
2022-10-31T00:45:18.996Z,10.50
2022-10-31T00:47:45.637Z,10.49
2022-10-31T00:50:12.309Z,10.39
2022-10-31T00:52:39.018Z,10.39
2022-10-31T00:55:05.775Z,10.36
2022-10-31T00:57:32.489Z,10.34
2022-10-31T00:59:59.256Z,10.33
2022-10-31T01:02:26.210Z,10.41
2022-10-31T01:04:53.030Z,10.34
2022-10-31T01:07:19.849Z,10.34
2022-10-31T01:09:46.590Z,10.39
2022-10-31T01:12:13.314Z,10.50
2022-10-31T01:14:44.097Z,10.38
2022-10-31T01:17:11.535Z,10.29
2022-10-31T01:19:38.624Z,10.34
2022-10-31T01:22:05.676Z,10.35
2022-10-31T01:24:32.585Z,10.25
2022-10-31T01:26:59.513Z,10.20
2022-10-31T01:29:26.268Z,10.21
2022-10-31T01:31:53.068Z,10.23
2022-10-31T01:34:20.113Z,10.14
2022-10-31T01:36:51.940Z,10.09
2022-10-31T01:39:20.262Z,10.11
2022-10-31T01:41:52.984Z,10.10
2022-10-31T01:44:19.663Z,10.09
2022-10-31T01:46:51.581Z,10.12
2022-10-31T01:49:25.603Z,10.05
2022-10-31T01:51:59.275Z,9.99
2022-10-31T01:54:33.138Z,10.06
2022-10-31T01:57:01.234Z,9.97
2022-10-31T01:59:32.330Z,9.93
2022-10-31T02:01:59.266Z,10.03
2022-10-31T02:04:27.103Z,9.93
2022-10-31T02:07:01.924Z,9.95
2022-10-31T02:09:30.447Z,10.04
2022-10-31T02:11:59.887Z,10.10
2022-10-31T02:14:28.955Z,9.99
2022-10-31T02:16:56.287Z,10.06
2022-10-31T02:19:41.992Z,10.08
2022-10-31T02:22:13.484Z,10.12
2022-10-31T02:25:30.638Z,10.03
2022-10-31T02:28:31.901Z,9.93
2022-10-31T02:31:17.229Z,9.95
2022-10-31T02:33:51.786Z,9.98
2022-10-31T02:36:27.062Z,10.16
2022-10-31T02:39:14.943Z,10.10
2022-10-31T02:41:59.857Z,10.00
2022-10-31T02:44:39.352Z,9.91
2022-10-31T02:47:18.030Z,9.85
2022-10-31T02:49:58.131Z,9.92
2022-10-31T02:52:31.520Z,9.95
2022-10-31T02:54:58.544Z,9.90
2022-10-31T02:57:29.381Z,9.85
2022-10-31T03:00:06.465Z,9.79
2022-10-31T03:03:15.616Z,9.88
2022-10-31T03:05:42.575Z,9.88
2022-10-31T03:08:32.435Z,9.82
2022-10-31T03:11:02.118Z,9.78
2022-10-31T03:14:00.789Z,9.72
2022-10-31T03:16:51.472Z,9.75
2022-10-31T03:19:21.176Z,9.78
2022-10-31T03:21:57.100Z,9.80
2022-10-31T03:24:28.385Z,9.88
2022-10-31T03:26:58.238Z,9.77
2022-10-31T03:29:29.226Z,9.76
2022-10-31T03:32:00.120Z,9.70
2022-10-31T03:34:30.398Z,9.70
2022-10-31T03:37:00.743Z,9.71
2022-10-31T03:39:28.975Z,9.70
2022-10-31T03:42:06.508Z,9.68
2022-10-31T03:44:35.862Z,9.71
2022-10-31T03:47:05.057Z,9.75
2022-10-31T03:49:33.703Z,9.78
2022-10-31T03:52:18.412Z,9.75
2022-10-31T03:54:46.649Z,9.69
2022-10-31T03:57:30.524Z,9.65
2022-10-31T04:00:04.778Z,9.60
2022-10-31T04:02:35.037Z,9.54
2022-10-31T04:05:02.946Z,9.62
2022-10-31T04:07:35.756Z,9.59
2022-10-31T04:10:07.640Z,9.62
2022-10-31T04:12:37.064Z,9.65
2022-10-31T04:15:06.987Z,9.71
2022-10-31T04:17:40.093Z,9.62
2022-10-31T04:20:07.590Z,9.62
2022-10-31T04:22:34.444Z,9.50
2022-10-31T04:25:01.252Z,9.49
2022-10-31T04:27:28.403Z,9.46
2022-10-31T04:29:55.070Z,9.40
2022-10-31T04:32:21.744Z,9.46
2022-10-31T04:34:48.402Z,9.41
2022-10-31T04:37:15.072Z,9.41
2022-10-31T04:39:41.784Z,9.39
2022-10-31T04:42:08.424Z,9.45
2022-10-31T04:44:35.263Z,9.42
2022-10-31T04:47:01.921Z,9.35
2022-10-31T04:49:28.614Z,9.25
2022-10-31T04:51:55.421Z,9.31
2022-10-31T04:54:22.107Z,9.52
2022-10-31T04:56:48.884Z,9.49
2022-10-31T04:59:15.590Z,9.49
2022-10-31T05:01:42.405Z,9.50
2022-10-31T05:04:09.382Z,9.41
2022-10-31T05:06:36.035Z,9.37
2022-10-31T05:09:02.980Z,9.36
2022-10-31T05:11:29.720Z,9.36
2022-10-31T05:13:56.361Z,9.37
2022-10-31T05:16:23.011Z,9.33
2022-10-31T05:18:49.749Z,9.33
2022-10-31T05:21:16.471Z,9.35
2022-10-31T05:23:47.456Z,9.42
2022-10-31T05:26:15.504Z,9.57
2022-10-31T05:28:42.142Z,9.57
2022-10-31T05:31:08.732Z,9.69
2022-10-31T05:33:35.467Z,9.72
2022-10-31T05:36:02.128Z,9.97
2022-10-31T05:38:28.848Z,10.10
2022-10-31T05:40:59.012Z,10.16
2022-10-31T05:43:25.680Z,10.14
2022-10-31T05:45:56.534Z,10.20
2022-10-31T05:48:23.673Z,10.23
2022-10-31T05:50:50.728Z,10.18
2022-10-31T05:53:17.739Z,10.23
2022-10-31T05:55:44.585Z,10.30
2022-10-31T05:58:11.722Z,10.45
2022-10-31T06:00:39.503Z,10.56
2022-10-31T06:05:36.363Z,10.57
2022-10-31T06:08:03.708Z,10.49
2022-10-31T06:10:30.804Z,10.45
2022-10-31T06:12:57.631Z,10.45
2022-10-31T06:15:24.996Z,10.46
2022-10-31T06:18:05.414Z,10.54
2022-10-31T06:20:32.995Z,10.54
2022-10-31T06:23:00.146Z,10.53
2022-10-31T06:25:27.742Z,10.56
2022-10-31T06:27:54.799Z,10.59
2022-10-31T06:30:21.793Z,10.65
2022-10-31T06:32:48.639Z,10.69
2022-10-31T06:35:15.292Z,10.81
2022-10-31T06:37:44.346Z,10.73
2022-10-31T06:40:13.522Z,10.79
2022-10-31T06:42:40.196Z,10.89
2022-10-31T06:45:07.500Z,10.99
2022-10-31T06:47:41.420Z,10.98
2022-10-31T06:50:12.633Z,11.09
2022-10-31T06:52:39.256Z,11.13
2022-10-31T06:55:06.289Z,11.18
2022-10-31T06:57:32.988Z,11.38
2022-10-31T06:59:59.685Z,11.40
2022-10-31T07:02:26.424Z,11.37
2022-10-31T07:04:53.124Z,11.40
2022-10-31T07:07:22.347Z,11.48
2022-10-31T07:09:49.061Z,11.53
2022-10-31T07:12:16.707Z,11.54
2022-10-31T07:14:43.403Z,11.53
2022-10-31T07:17:10.230Z,11.68
2022-10-31T07:19:36.982Z,11.89
2022-10-31T07:22:03.627Z,12.10
2022-10-31T07:24:31.395Z,12.21
2022-10-31T07:29:29.590Z,12.33
2022-10-31T07:31:56.295Z,12.43
2022-10-31T07:34:23.011Z,12.50
2022-10-31T07:36:51.909Z,12.60
2022-10-31T07:39:18.643Z,12.75
2022-10-31T07:41:45.333Z,12.80
2022-10-31T07:44:12.037Z,12.90
2022-10-31T07:46:38.675Z,12.94
2022-10-31T07:49:05.389Z,13.09
2022-10-31T07:51:32.175Z,13.16
2022-10-31T07:53:58.918Z,13.21
2022-10-31T07:56:25.642Z,13.31
2022-10-31T07:58:52.273Z,13.36
2022-10-31T08:01:18.983Z,13.50
2022-10-31T08:03:45.724Z,13.49
2022-10-31T08:06:12.599Z,13.59
2022-10-31T08:08:39.256Z,13.64
2022-10-31T08:11:06.124Z,13.67
2022-10-31T08:13:33.010Z,13.69
2022-10-31T08:16:04.609Z,13.68
2022-10-31T08:18:31.435Z,13.79
2022-10-31T08:20:58.146Z,13.78
2022-10-31T08:23:24.911Z,13.78
2022-10-31T08:25:51.611Z,13.75
2022-10-31T08:28:18.344Z,13.80
2022-10-31T08:30:46.923Z,13.78
2022-10-31T08:33:16.446Z,13.80
2022-10-31T08:35:43.797Z,13.89
2022-10-31T08:38:12.544Z,13.79
2022-10-31T08:40:39.692Z,13.93
2022-10-31T08:43:14.280Z,13.97
2022-10-31T08:45:41.741Z,14.01
2022-10-31T08:48:12.137Z,13.91
2022-10-31T08:50:39.681Z,14.07
2022-10-31T08:53:12.136Z,14.14
2022-10-31T08:55:40.577Z,14.00
2022-10-31T08:58:10.197Z,14.09
2022-10-31T09:00:37.015Z,14.07
2022-10-31T09:03:06.793Z,14.05
2022-10-31T09:05:34.360Z,14.09
2022-10-31T09:08:06.011Z,14.09
2022-10-31T09:10:35.165Z,14.20
2022-10-31T09:13:16.972Z,14.32
2022-10-31T09:15:45.265Z,14.33
2022-10-31T09:18:13.308Z,14.22
2022-10-31T09:20:41.817Z,14.35
2022-10-31T09:23:12.601Z,14.28
2022-10-31T09:25:39.844Z,14.39
2022-10-31T09:28:10.368Z,14.43
2022-10-31T09:30:37.630Z,14.49
2022-10-31T09:33:06.987Z,14.49
2022-10-31T09:35:34.058Z,14.53
2022-10-31T09:38:22.337Z,14.62
2022-10-31T09:41:02.063Z,14.65
2022-10-31T09:44:10.492Z,14.66
2022-10-31T09:46:46.527Z,14.73
2022-10-31T09:49:33.834Z,14.73
2022-10-31T09:52:12.539Z,14.78
2022-10-31T09:54:45.840Z,14.66
2022-10-31T09:57:16.319Z,14.66
2022-10-31T09:59:45.451Z,14.71
2022-10-31T10:02:24.341Z,14.78
2022-10-31T10:05:12.872Z,14.75
2022-10-31T10:08:08.829Z,14.81
2022-10-31T10:11:14.417Z,14.75
2022-10-31T10:13:52.493Z,14.80
2022-10-31T10:16:45.438Z,14.91
2022-10-31T10:19:15.140Z,14.95
2022-10-31T10:21:50.984Z,14.92
2022-10-31T10:24:32.465Z,14.91
2022-10-31T10:27:09.887Z,14.91
2022-10-31T10:29:55.219Z,15.01
2022-10-31T10:32:26.297Z,15.00
2022-10-31T10:34:59.148Z,15.13
2022-10-31T10:37:36.950Z,15.19
2022-10-31T10:40:24.493Z,15.21
2022-10-31T10:43:23.032Z,15.18
2022-10-31T10:46:43.801Z,15.18
2022-10-31T10:49:15.988Z,15.45
2022-10-31T10:52:07.344Z,15.36
2022-10-31T10:54:45.704Z,15.39
2022-10-31T10:57:22.757Z,15.58
2022-10-31T10:59:50.220Z,15.52
2022-10-31T11:02:27.310Z,15.60
2022-10-31T11:04:57.866Z,15.37
2022-10-31T11:07:24.805Z,15.22
2022-10-31T11:09:51.656Z,15.18
2022-10-31T11:12:31.683Z,15.07
2022-10-31T11:15:04.861Z,15.09
2022-10-31T11:17:38.088Z,15.06
2022-10-31T11:20:07.727Z,15.16
2022-10-31T11:22:34.565Z,15.22
2022-10-31T11:25:01.174Z,15.24
2022-10-31T11:27:28.011Z,15.22
2022-10-31T11:30:05.477Z,15.06
2022-10-31T11:32:32.691Z,14.99
2022-10-31T11:35:03.249Z,15.07
2022-10-31T11:37:36.076Z,15.03
2022-10-31T11:40:06.485Z,15.02
2022-10-31T11:42:42.445Z,15.04
2022-10-31T11:45:29.696Z,15.08
2022-10-31T11:47:59.930Z,14.96
2022-10-31T11:50:41.956Z,15.12
2022-10-31T11:53:34.055Z,15.21
2022-10-31T11:56:16.667Z,15.14
2022-10-31T11:58:43.838Z,15.08
2022-10-31T12:01:26.233Z,15.01
2022-10-31T12:04:02.058Z,15.06
2022-10-31T12:06:38.638Z,14.95
2022-10-31T12:09:28.848Z,14.96
2022-10-31T12:12:06.616Z,14.77
2022-10-31T12:14:36.212Z,14.64
2022-10-31T12:17:20.987Z,14.67
2022-10-31T12:20:41.910Z,14.71
2022-10-31T12:23:25.579Z,14.60
2022-10-31T12:26:11.675Z,14.55
2022-10-31T12:28:59.666Z,14.48
2022-10-31T12:31:40.986Z,14.27
2022-10-31T12:34:35.235Z,14.30
2022-10-31T12:37:20.601Z,14.37
2022-10-31T12:39:57.140Z,14.37
2022-10-31T12:42:37.741Z,14.39
2022-10-31T12:45:38.119Z,14.35
2022-10-31T12:48:16.788Z,14.32
2022-10-31T12:51:08.605Z,14.21
2022-10-31T12:54:10.700Z,14.21
2022-10-31T12:57:16.568Z,14.32
2022-10-31T13:00:04.343Z,14.23
2022-10-31T13:02:43.521Z,14.24
2022-10-31T13:05:44.409Z,14.24
2022-10-31T13:08:36.053Z,14.21
2022-10-31T13:11:08.355Z,14.27
2022-10-31T13:13:54.930Z,14.04
2022-10-31T13:16:27.635Z,14.00
2022-10-31T13:19:09.861Z,14.03
2022-10-31T13:21:56.055Z,14.06
2022-10-31T13:24:30.938Z,14.10
2022-10-31T13:27:00.375Z,14.00
2022-10-31T13:29:32.599Z,14.06
2022-10-31T13:32:09.904Z,14.00
2022-10-31T13:34:57.100Z,13.88
2022-10-31T13:37:35.873Z,13.92
2022-10-31T13:40:15.924Z,13.88
2022-10-31T13:42:53.076Z,13.93
2022-10-31T13:45:23.101Z,13.90
2022-10-31T13:48:02.723Z,13.78
2022-10-31T13:50:32.547Z,13.75
2022-10-31T13:53:44.413Z,13.85
2022-10-31T13:56:11.272Z,13.85
2022-10-31T13:58:37.911Z,13.85
2022-10-31T14:01:13.998Z,13.76
2022-10-31T14:04:06.242Z,13.75
2022-10-31T14:06:55.676Z,13.63
2022-10-31T14:09:39.423Z,13.65
2022-10-31T14:12:08.311Z,13.66
2022-10-31T14:14:45.768Z,13.71
2022-10-31T14:17:22.365Z,13.74
2022-10-31T14:20:21.349Z,13.71
2022-10-31T14:22:48.250Z,13.66
2022-10-31T14:25:34.449Z,13.63
2022-10-31T14:28:23.608Z,13.69
2022-10-31T14:30:55.967Z,13.58
2022-10-31T14:33:26.659Z,13.51
2022-10-31T14:36:23.916Z,13.70
2022-10-31T14:39:05.703Z,13.68
2022-10-31T14:42:03.728Z,13.51
2022-10-31T14:45:01.382Z,13.52
2022-10-31T14:47:44.298Z,13.51
2022-10-31T14:50:25.631Z,13.54
2022-10-31T14:52:57.715Z,13.55
2022-10-31T14:55:25.642Z,13.50
2022-10-31T14:58:00.925Z,13.45
2022-10-31T15:00:30.007Z,13.47
2022-10-31T15:03:02.877Z,13.48
2022-10-31T15:05:30.918Z,13.52
2022-10-31T15:07:59.670Z,13.50
2022-10-31T15:10:33.111Z,13.35
2022-10-31T15:13:19.452Z,13.41
2022-10-31T15:15:49.728Z,13.37
2022-10-31T15:18:22.884Z,13.46
2022-10-31T15:20:51.695Z,13.43
2022-10-31T15:23:29.970Z,13.38
2022-10-31T15:26:06.023Z,13.43
2022-10-31T15:28:33.383Z,13.44
2022-10-31T15:31:02.592Z,13.37
2022-10-31T15:33:38.240Z,13.34
2022-10-31T15:36:07.166Z,13.27
2022-10-31T15:38:34.044Z,13.21
2022-10-31T15:41:04.695Z,13.29
2022-10-31T15:43:37.198Z,13.23
2022-10-31T15:46:11.005Z,13.22
2022-10-31T15:48:39.363Z,13.23
2022-10-31T15:51:06.956Z,13.26
2022-10-31T15:53:42.624Z,13.27
2022-10-31T15:56:13.713Z,13.26
2022-10-31T15:58:45.251Z,13.25
2022-10-31T16:01:29.253Z,13.23
2022-10-31T16:04:20.567Z,13.26
2022-10-31T16:07:12.810Z,13.25
2022-10-31T16:09:50.896Z,13.23
2022-10-31T16:12:21.503Z,13.25
2022-10-31T16:14:51.470Z,13.21
2022-10-31T16:17:22.236Z,13.20
2022-10-31T16:19:50.464Z,13.19
2022-10-31T16:22:24.767Z,13.21
2022-10-31T16:25:19.801Z,13.21
2022-10-31T16:27:54.495Z,13.14
2022-10-31T16:30:42.766Z,13.18
2022-10-31T16:33:37.741Z,13.12
2022-10-31T16:36:35.942Z,13.21
2022-10-31T16:39:04.092Z,13.18
2022-10-31T16:41:31.021Z,13.09
2022-10-31T16:43:57.868Z,13.10
2022-10-31T16:46:28.629Z,13.17
2022-10-31T16:48:55.622Z,13.16
2022-10-31T16:51:22.393Z,13.17
2022-10-31T16:53:52.946Z,13.06
2022-10-31T16:56:28.555Z,13.08
2022-10-31T16:58:55.293Z,13.15
2022-10-31T17:01:22.353Z,13.12
2022-10-31T17:03:49.244Z,13.07
2022-10-31T17:06:16.150Z,13.12
2022-10-31T17:08:42.865Z,13.03
2022-10-31T17:11:18.151Z,13.04
2022-10-31T17:13:44.927Z,13.04
2022-10-31T17:16:14.320Z,13.05
2022-10-31T17:18:41.725Z,13.08
2022-10-31T17:21:16.467Z,13.04
2022-10-31T17:23:44.879Z,13.09
2022-10-31T17:26:11.887Z,13.12
2022-10-31T17:28:38.570Z,13.17
2022-10-31T17:31:05.375Z,13.14
2022-10-31T17:33:32.223Z,13.15
2022-10-31T17:35:58.901Z,13.16
2022-10-31T17:38:25.814Z,13.21
2022-10-31T17:40:52.693Z,13.22
2022-10-31T17:43:19.519Z,13.14
2022-10-31T17:45:46.323Z,13.14
2022-10-31T17:48:13.152Z,13.06
2022-10-31T17:50:39.975Z,13.08
2022-10-31T17:53:06.620Z,12.95
2022-10-31T17:55:36.257Z,12.90
2022-10-31T17:58:04.717Z,12.88
2022-10-31T18:00:31.673Z,12.81
2022-10-31T18:02:58.864Z,12.93
2022-10-31T18:05:26.073Z,12.88
2022-10-31T18:07:53.115Z,12.96
2022-10-31T18:10:19.915Z,12.86
2022-10-31T18:12:48.648Z,12.87
2022-10-31T18:15:16.408Z,12.87
2022-10-31T18:17:43.277Z,12.82
2022-10-31T18:20:10.758Z,12.77
2022-10-31T18:22:37.553Z,12.74
2022-10-31T18:25:05.431Z,12.85
2022-10-31T18:27:32.124Z,12.88
2022-10-31T18:29:58.846Z,12.87
2022-10-31T18:32:25.829Z,12.85
2022-10-31T18:34:52.451Z,12.92
2022-10-31T18:37:19.232Z,13.00
2022-10-31T18:39:46.106Z,12.86
2022-10-31T18:42:12.868Z,12.93
2022-10-31T18:44:39.921Z,12.94
2022-10-31T18:47:06.660Z,12.95
2022-10-31T18:49:33.542Z,12.87
2022-10-31T18:52:00.767Z,12.87
2022-10-31T18:54:27.588Z,12.89
2022-10-31T18:56:55.891Z,12.94
2022-10-31T18:59:22.809Z,12.87
2022-10-31T19:01:50.035Z,12.77
2022-10-31T19:04:16.774Z,12.85
2022-10-31T19:06:43.758Z,12.86
2022-10-31T19:09:10.982Z,12.82
2022-10-31T19:11:38.715Z,12.85
2022-10-31T19:14:08.178Z,12.80
2022-10-31T19:16:35.487Z,12.71
2022-10-31T19:19:02.334Z,12.72
2022-10-31T19:21:30.530Z,12.76
2022-10-31T19:23:58.156Z,12.70
2022-10-31T19:26:26.235Z,12.73
2022-10-31T19:28:53.325Z,12.70
2022-10-31T19:31:20.211Z,12.78
2022-10-31T19:33:47.663Z,12.77
2022-10-31T19:36:18.155Z,12.81
2022-10-31T19:38:47.608Z,12.75
2022-10-31T19:41:20.327Z,12.81
2022-10-31T19:43:50.676Z,12.82
2022-10-31T19:46:22.705Z,12.77
2022-10-31T19:49:06.188Z,12.80
2022-10-31T19:51:32.849Z,12.80
2022-10-31T19:53:59.526Z,12.78
2022-10-31T19:56:26.448Z,12.82
2022-10-31T19:58:53.365Z,12.86
2022-10-31T20:01:22.673Z,12.84
2022-10-31T20:03:50.211Z,12.88
2022-10-31T20:06:52.429Z,12.91
2022-10-31T20:09:19.313Z,12.92
2022-10-31T20:11:46.311Z,12.90
2022-10-31T20:14:15.634Z,12.91
2022-10-31T20:16:42.993Z,12.94
2022-10-31T20:19:09.917Z,12.92
2022-10-31T20:21:40.296Z,12.92
2022-10-31T20:24:09.129Z,12.99
2022-10-31T20:26:40.759Z,13.02
2022-10-31T20:29:08.198Z,13.05
2022-10-31T20:31:36.683Z,13.10
2022-10-31T20:34:04.189Z,13.05
2022-10-31T20:36:31.104Z,13.07
2022-10-31T20:38:58.810Z,13.06
2022-10-31T20:41:25.796Z,13.05
2022-10-31T20:43:52.841Z,13.06
2022-10-31T20:46:21.953Z,13.00
2022-10-31T20:48:50.406Z,13.06
2022-10-31T20:51:26.787Z,13.07
2022-10-31T20:53:55.808Z,13.00
2022-10-31T20:56:25.333Z,12.95
2022-10-31T20:58:54.717Z,13.04
2022-10-31T21:01:24.647Z,13.10
2022-10-31T21:03:52.306Z,13.11
2022-10-31T21:06:20.419Z,13.16
2022-10-31T21:08:47.490Z,13.14
2022-10-31T21:11:17.522Z,13.15
2022-10-31T21:13:46.533Z,13.10
2022-10-31T21:16:15.700Z,13.16
2022-10-31T21:18:44.114Z,13.15
2022-10-31T21:21:18.401Z,13.18
2022-10-31T21:23:45.506Z,13.21
2022-10-31T21:26:19.119Z,13.20
2022-10-31T21:28:45.731Z,13.25
2022-10-31T21:31:15.134Z,13.24
2022-10-31T21:33:42.625Z,13.27
2022-10-31T21:36:10.302Z,13.29
2022-10-31T21:38:37.618Z,13.29
2022-10-31T21:41:06.120Z,13.27
2022-10-31T21:43:35.838Z,13.31
2022-10-31T21:46:08.243Z,13.33
2022-10-31T21:48:39.095Z,13.34
2022-10-31T21:51:09.022Z,13.37
2022-10-31T21:53:55.340Z,13.38
2022-10-31T21:56:23.454Z,13.39
2022-10-31T21:58:50.884Z,13.44
2022-10-31T22:01:18.290Z,13.45
2022-10-31T22:03:45.638Z,13.48
2022-10-31T22:06:13.424Z,13.51
2022-10-31T22:08:40.733Z,13.50
2022-10-31T22:11:15.841Z,13.58
2022-10-31T22:13:44.267Z,13.52
2022-10-31T22:16:13.316Z,13.58
2022-10-31T22:18:41.470Z,13.50
2022-10-31T22:21:14.812Z,13.53
2022-10-31T22:23:42.112Z,13.52
2022-10-31T22:26:17.181Z,13.49
2022-10-31T22:28:45.971Z,13.55
2022-10-31T22:31:15.098Z,13.50
2022-10-31T22:33:42.056Z,13.51
2022-10-31T22:36:11.239Z,13.46
2022-10-31T22:38:40.359Z,13.44
2022-10-31T22:41:09.036Z,13.44
2022-10-31T22:43:35.928Z,13.43
2022-10-31T22:46:05.221Z,13.37
2022-10-31T22:48:39.070Z,13.41
2022-10-31T22:51:10.609Z,13.39
2022-10-31T22:53:39.050Z,13.32
2022-10-31T22:56:07.743Z,13.34
2022-10-31T22:58:35.228Z,13.26
2022-10-31T23:01:07.560Z,13.29
2022-10-31T23:03:36.159Z,13.22
2022-10-31T23:06:04.649Z,13.24
2022-10-31T23:08:34.198Z,13.19
2022-10-31T23:11:01.047Z,13.15
2022-10-31T23:13:46.959Z,13.22
2022-10-31T23:16:13.799Z,13.20
2022-10-31T23:18:55.506Z,13.20
2022-10-31T23:21:43.844Z,13.14
2022-10-31T23:24:13.833Z,13.18
2022-10-31T23:26:59.052Z,13.25
2022-10-31T23:29:25.815Z,13.10
2022-10-31T23:31:54.666Z,13.07
2022-10-31T23:34:24.509Z,13.09
2022-10-31T23:36:51.138Z,13.07
2022-10-31T23:39:21.198Z,13.02
2022-10-31T23:41:51.048Z,13.05
2022-10-31T23:44:17.730Z,13.15
2022-10-31T23:46:44.345Z,13.12
2022-10-31T23:49:11.223Z,13.06
2022-10-31T23:51:39.269Z,13.09
2022-10-31T23:54:06.228Z,13.08
2022-10-31T23:56:33.053Z,13.11
2022-10-31T23:58:59.928Z,13.12
